Time;durP1;ratioP1;P1;durP2;ratioP2;P2;SDS_P1;SDS_P2;PMS_P1;PMS_P2;Temp;Humidity;BMP_temperature;BMP_pressure;BME280_temperature;BME280_humidity;BME280_pressure;Samples;Min_cycle;Max_cycle;Signal;HPM_P1;HPM_P2
2022/04/09 00:01:26;;;;;;;6.22;2.20;;;;;;;11.94;64.81;94129.47;5070768;28;20040;-45
2022/04/09 00:03:53;;;;;;;5.05;1.40;;;;;;;12.11;63.66;94128.47;5068781;28;20177;-47
2022/04/09 00:06:20;;;;;;;2.67;1.77;;;;;;;12.28;62.75;94139.50;5069356;28;20725;-47
2022/04/09 00:08:47;;;;;;;4.60;1.73;;;;;;;12.27;62.18;94126.69;5065859;28;20037;-46
2022/04/09 00:11:14;;;;;;;3.40;2.10;;;;;;;12.34;61.52;94138.44;5065098;28;20072;-45
2022/04/09 00:13:41;;;;;;;2.70;1.50;;;;;;;12.38;61.15;94131.66;5068232;28;20048;-47
2022/04/09 00:16:08;;;;;;;3.10;1.75;;;;;;;12.56;60.32;94134.84;5064118;28;20119;-50
2022/04/09 00:18:35;;;;;;;2.35;1.50;;;;;;;12.62;60.48;94134.59;5066018;28;20074;-46
2022/04/09 00:21:02;;;;;;;4.72;2.28;;;;;;;12.62;61.09;94133.78;5070534;28;20432;-46
2022/04/09 00:23:29;;;;;;;5.10;2.13;;;;;;;12.43;62.11;94142.13;5069225;28;20054;-46
2022/04/09 00:25:56;;;;;;;4.70;2.85;;;;;;;12.04;63.89;94139.94;5067423;28;20115;-46
2022/04/09 00:28:22;;;;;;;5.38;2.65;;;;;;;11.86;64.64;94143.75;5069529;28;20813;-48
2022/04/09 00:30:49;;;;;;;4.43;2.55;;;;;;;11.62;65.97;94132.97;5072996;28;20036;-46
2022/04/09 00:33:16;;;;;;;8.38;2.38;;;;;;;11.38;67.03;94137.00;5068912;28;20421;-47
2022/04/09 00:35:42;;;;;;;4.03;2.40;;;;;;;11.17;67.96;94136.91;5064509;28;20063;-45
2022/04/09 00:38:09;;;;;;;2.78;1.75;;;;;;;11.04;68.86;94127.69;5070735;28;20040;-48
2022/04/09 00:40:38;;;;;;;3.33;1.90;;;;;;;10.95;69.19;94131.00;5070703;28;20068;-47
2022/04/09 00:43:05;;;;;;;5.38;2.63;;;;;;;10.88;69.33;94132.00;5069819;28;20044;-48
2022/04/09 00:45:31;;;;;;;3.60;2.35;;;;;;;10.85;69.95;94140.31;5063914;28;20049;-47
2022/04/09 00:47:59;;;;;;;3.17;1.88;;;;;;;10.86;69.35;94136.69;5066303;28;20050;-45
2022/04/09 00:50:26;;;;;;;4.78;2.15;;;;;;;10.86;69.55;94136.69;5069360;28;20048;-48
2022/04/09 00:52:57;;;;;;;2.88;2.15;;;;;;;10.87;69.53;94135.63;5065489;28;20970;-45
2022/04/09 00:58:13;;;;;;;3.33;2.08;;;;;;;10.87;69.14;94127.81;5062113;28;20052;-46
2022/04/09 01:00:41;;;;;;;4.40;2.10;;;;;;;10.83;69.35;94131.97;5066605;28;20044;-46
2022/04/09 01:03:11;;;;;;;3.45;1.83;;;;;;;10.82;69.75;94137.41;5074386;28;20066;-46
2022/04/09 01:05:41;;;;;;;5.40;1.73;;;;;;;10.75;69.79;94124.63;5064668;28;20086;-46
2022/04/09 01:08:08;;;;;;;5.32;1.83;;;;;;;10.75;69.94;94134.22;5066222;28;20869;-47
2022/04/09 01:10:37;;;;;;;5.00;2.08;;;;;;;10.68;70.54;94124.81;5065806;28;20041;-46
2022/04/09 01:13:05;;;;;;;3.55;1.45;;;;;;;10.68;70.64;94131.84;5069081;28;20046;-47
2022/04/09 01:15:33;;;;;;;7.05;2.05;;;;;;;10.70;70.58;94124.56;5068576;28;20052;-46
2022/04/09 01:18:00;;;;;;;2.67;1.40;;;;;;;10.74;70.46;94123.03;5065708;28;20059;-49
2022/04/09 01:20:29;;;;;;;2.40;1.52;;;;;;;10.77;70.15;94116.53;5064401;28;20068;-49
2022/04/09 01:22:56;;;;;;;3.80;1.50;;;;;;;10.84;69.52;94106.69;5067723;28;20044;-46
2022/04/09 01:25:23;;;;;;;4.28;1.67;;;;;;;10.87;69.27;94106.97;5071987;28;20040;-47
2022/04/09 01:27:55;;;;;;;5.88;1.58;;;;;;;10.88;69.52;94113.78;5066131;28;20047;-46
2022/04/09 01:30:22;;;;;;;3.28;1.45;;;;;;;10.90;69.25;94116.91;5067767;28;20040;-46
2022/04/09 01:32:49;;;;;;;4.80;1.63;;;;;;;10.90;68.96;94118.72;5070983;28;20076;-49
2022/04/09 01:35:15;;;;;;;2.83;1.60;;;;;;;10.93;68.93;94120.03;5068114;28;20064;-49
2022/04/09 01:37:43;;;;;;;4.93;1.65;;;;;;;10.96;68.74;94125.53;5068130;28;20040;-47
2022/04/09 01:40:10;;;;;;;2.33;1.30;;;;;;;10.95;68.35;94117.97;5065768;28;20047;-46
2022/04/09 01:42:41;;;;;;;2.78;1.65;;;;;;;10.94;68.35;94114.59;5072606;28;20044;-49
2022/04/09 01:45:09;;;;;;;4.10;1.60;;;;;;;10.96;68.24;94114.34;5071504;28;20052;-49
2022/04/09 01:47:41;;;;;;;4.22;1.67;;;;;;;10.89;67.62;94084.09;5072586;28;20139;-50
2022/04/09 01:50:11;;;;;;;3.22;1.77;;;;;;;11.03;67.64;94109.69;5067898;28;20119;-46
2022/04/09 01:52:39;;;;;;;1.48;1.02;;;;;;;11.03;67.43;94110.47;5071366;28;20472;-47
2022/04/09 01:55:06;;;;;;;1.90;1.30;;;;;;;11.01;67.37;94106.56;5070798;28;20793;-46
2022/04/09 01:57:35;;;;;;;4.47;1.40;;;;;;;11.02;67.57;94113.31;5069744;28;20055;-46
2022/04/09 02:00:08;;;;;;;4.50;1.55;;;;;;;11.01;67.37;94114.38;5066527;28;20043;-47
2022/04/09 02:02:39;;;;;;;2.92;1.20;;;;;;;10.98;67.88;94113.03;5068119;28;20056;-47
2022/04/09 02:05:07;;;;;;;5.53;1.77;;;;;;;10.98;67.91;94117.47;5071929;28;20114;-46
2022/04/09 02:07:35;;;;;;;6.53;1.92;;;;;;;10.94;68.01;94119.03;5064295;28;20049;-46
2022/04/09 02:10:05;;;;;;;7.75;1.90;;;;;;;10.92;68.22;94115.88;5068866;28;20075;-48
2022/04/09 02:12:35;;;;;;;4.35;1.60;;;;;;;10.92;68.06;94110.69;5069977;28;20110;-49
2022/04/09 02:15:05;;;;;;;1.77;1.08;;;;;;;10.89;68.13;94109.34;5071522;28;20043;-47
2022/04/09 02:17:31;;;;;;;4.18;1.75;;;;;;;10.88;68.33;94113.78;5071840;28;20135;-46
2022/04/09 02:19:58;;;;;;;3.47;1.25;;;;;;;10.93;68.20;94109.63;5068705;28;20056;-48
2022/04/09 02:22:26;;;;;;;2.17;1.35;;;;;;;10.94;68.42;94109.38;5064246;28;20056;-45
2022/04/09 02:24:53;;;;;;;6.80;1.73;;;;;;;10.97;68.35;94106.28;5066795;28;20036;-48
2022/04/09 02:27:20;;;;;;;3.72;1.10;;;;;;;10.98;68.11;94112.25;5067821;28;20131;-50
2022/04/09 02:29:46;;;;;;;2.00;1.80;;;;;;;10.91;68.25;94112.47;5070380;28;20036;-50
2022/04/09 02:32:13;;;;;;;3.45;1.45;;;;;;;10.92;68.33;94108.06;5070470;28;20044;-46
2022/04/09 02:34:40;;;;;;;3.75;1.75;;;;;;;10.86;68.34;94115.84;5069727;28;20083;-47
2022/04/09 02:37:07;;;;;;;2.40;1.42;;;;;;;10.83;68.65;94116.34;5069671;28;20041;-46
2022/04/09 02:39:34;;;;;;;4.85;2.22;;;;;;;10.71;69.43;94113.09;5066619;28;20513;-46
2022/04/09 02:42:01;;;;;;;2.92;2.03;;;;;;;10.65;70.12;94114.88;5069173;28;20106;-47
2022/04/09 02:44:30;;;;;;;5.80;2.85;;;;;;;10.55;70.45;94116.63;5067567;28;20459;-49
2022/04/09 02:46:58;;;;;;;9.02;3.50;;;;;;;10.37;71.23;94113.38;5073190;28;20055;-46
2022/04/09 02:49:25;;;;;;;3.90;2.05;;;;;;;10.32;71.77;94110.72;5075387;28;20112;-46
2022/04/09 02:51:52;;;;;;;4.88;2.40;;;;;;;10.14;72.68;94114.41;5064336;28;20075;-49
2022/04/09 02:54:20;;;;;;;4.70;2.00;;;;;;;9.95;73.44;94106.16;5049090;28;20072;-48
2022/04/09 02:56:50;;;;;;;3.70;2.45;;;;;;;9.73;74.03;94080.94;5067188;28;20531;-47
2022/04/09 02:59:21;;;;;;;5.30;1.77;;;;;;;9.75;75.01;94101.50;5066097;28;20044;-47
2022/04/09 03:01:48;;;;;;;3.20;2.10;;;;;;;9.65;75.32;94096.19;5068846;28;20052;-51
2022/04/09 03:04:16;;;;;;;4.97;2.75;;;;;;;9.58;75.84;94096.38;5069671;28;20083;-49
2022/04/09 03:06:43;;;;;;;4.32;2.50;;;;;;;9.50;75.70;94094.19;5065405;28;20048;-45
2022/04/09 03:09:10;;;;;;;5.47;2.40;;;;;;;9.45;75.95;94096.72;5067130;28;20037;-48
2022/04/09 03:11:38;;;;;;;5.15;1.95;;;;;;;9.38;76.21;94097.72;5067879;28;20118;-46
2022/04/09 03:14:04;;;;;;;5.80;2.42;;;;;;;9.33;76.30;94100.25;5069370;28;20052;-47
2022/04/09 03:16:32;;;;;;;6.18;2.22;;;;;;;9.33;76.83;94099.47;5065777;28;20573;-47
2022/04/09 03:19:00;;;;;;;5.75;1.88;;;;;;;9.25;77.14;94086.88;5063280;28;20523;-45
2022/04/09 03:21:27;;;;;;;6.28;2.33;;;;;;;9.23;77.25;94088.94;5069758;28;20048;-45
2022/04/09 03:23:54;;;;;;;4.95;2.47;;;;;;;9.18;77.45;94092.22;5070741;28;20044;-46
2022/04/09 03:26:21;;;;;;;4.47;2.30;;;;;;;9.19;77.53;94094.59;5070680;28;20119;-48
2022/04/09 03:28:54;;;;;;;3.78;1.92;;;;;;;9.12;77.56;94093.19;5067258;28;20044;-46
2022/04/09 03:31:21;;;;;;;4.53;2.22;;;;;;;9.10;77.90;94092.66;5070819;28;20632;-46
2022/04/09 03:33:51;;;;;;;4.15;2.25;;;;;;;8.87;77.82;94081.44;5066155;28;20043;-48
2022/04/09 03:36:20;;;;;;;4.65;2.33;;;;;;;8.67;78.77;94094.13;5065273;28;20055;-47
2022/04/09 03:38:48;;;;;;;12.02;3.67;;;;;;;8.59;79.46;94096.09;5064608;28;20482;-49
2022/04/09 03:41:16;;;;;;;7.60;3.22;;;;;;;8.52;80.40;94085.06;5071336;28;20115;-47
2022/04/09 03:43:58;;;;;;;13.32;3.67;;;;;;;8.50;80.88;94084.53;5052706;28;20532;-46
2022/04/09 03:46:30;;;;;;;5.75;3.00;;;;;;;8.40;82.24;94087.69;5069336;28;20059;-45
2022/04/09 03:49:01;;;;;;;8.90;3.33;;;;;;;8.41;82.12;94078.91;5067875;28;20450;-49
2022/04/09 03:51:28;;;;;;;6.75;2.60;;;;;;;8.39;81.63;94077.53;5069057;28;20127;-45
2022/04/09 03:53:56;;;;;;;8.00;2.60;;;;;;;8.35;82.07;94068.66;5065321;28;20677;-46
2022/04/09 03:56:26;;;;;;;4.18;2.78;;;;;;;8.30;83.14;94071.19;5062782;28;20051;-49
2022/04/09 03:58:52;;;;;;;9.90;2.97;;;;;;;8.28;83.37;94073.22;5068231;28;20538;-50
2022/04/09 04:01:24;;;;;;;7.75;2.67;;;;;;;8.36;83.59;94075.44;5059736;28;21725;-48
2022/04/09 04:03:52;;;;;;;7.20;4.68;;;;;;;8.17;85.70;94085.22;5063052;28;20052;-47
2022/04/09 04:06:20;;;;;;;9.25;5.45;;;;;;;8.28;84.51;94081.00;5063035;28;20472;-50
2022/04/09 04:08:51;;;;;;;11.75;4.60;;;;;;;8.24;84.61;94073.69;5063887;28;20425;-45
2022/04/09 04:11:19;;;;;;;10.63;4.97;;;;;;;8.24;84.86;94073.69;5067462;28;21061;-48
2022/04/09 04:13:47;;;;;;;12.02;5.05;;;;;;;8.24;84.71;94072.91;5063006;28;20045;-48
2022/04/09 04:16:14;;;;;;;10.82;5.55;;;;;;;8.22;84.68;94077.53;5059643;28;22075;-45
2022/04/09 04:18:43;;;;;;;9.88;4.05;;;;;;;8.19;84.52;94078.81;5067512;28;20109;-49
2022/04/09 04:21:11;;;;;;;7.35;4.55;;;;;;;8.12;84.65;94075.56;5066875;28;20052;-51
2022/04/09 04:23:41;;;;;;;11.10;4.30;;;;;;;8.12;85.00;94075.56;5067718;28;20048;-47
2022/04/09 04:26:16;;;;;;;10.35;4.53;;;;;;;8.06;85.34;94071.31;5064400;28;20072;-49
2022/04/09 04:28:51;;;;;;;9.50;4.22;;;;;;;8.04;86.06;94073.34;5064644;28;20480;-51
2022/04/09 04:31:20;;;;;;;6.53;4.03;;;;;;;8.06;85.25;94060.94;5064742;28;20134;-49
2022/04/09 04:33:47;;;;;;;9.38;5.03;;;;;;;8.07;85.80;94062.53;5065095;28;20041;-48
2022/04/09 04:36:14;;;;;;;12.95;5.10;;;;;;;8.13;85.84;94056.38;5063246;28;20063;-51
2022/04/09 04:38:42;;;;;;;12.93;6.03;;;;;;;8.14;85.97;94057.97;5064286;28;20051;-52
2022/04/09 04:41:09;;;;;;;10.13;5.43;;;;;;;8.00;86.70;94067.06;5066001;28;20512;-47
2022/04/09 04:43:37;;;;;;;14.57;5.47;;;;;;;8.05;87.61;94067.16;5066239;28;20049;-45
2022/04/09 04:46:05;;;;;;;11.32;6.43;;;;;;;8.14;87.43;94064.94;5062771;28;20099;-50
2022/04/09 04:48:34;;;;;;;12.90;7.40;;;;;;;8.27;87.58;94069.06;5066422;28;20052;-50
2022/04/09 04:51:03;;;;;;;16.45;7.45;;;;;;;8.37;87.33;94061.44;5067076;28;20127;-45
2022/04/09 04:53:32;;;;;;;16.65;7.90;;;;;;;8.41;86.86;94049.59;5068573;28;20048;-47
2022/04/09 04:56:02;;;;;;;7.50;3.75;;;;;;;8.55;86.08;94069.03;5100275;28;20053;-46
2022/04/09 04:58:43;;;;;;;9.55;5.00;;;;;;;8.66;85.73;94064.78;5064747;28;20075;-49
2022/04/09 05:01:10;;;;;;;10.68;5.90;;;;;;;8.79;84.98;94068.84;5063953;28;20079;-52
2022/04/09 05:03:42;;;;;;;7.00;3.78;;;;;;;8.76;84.31;94059.72;5065902;28;20535;-50
2022/04/09 05:06:15;;;;;;;5.82;3.55;;;;;;;8.91;84.43;94061.75;5065505;28;20048;-48
2022/04/09 05:08:43;;;;;;;6.90;2.58;;;;;;;9.03;84.74;94072.03;5060331;28;20043;-51
2022/04/09 05:11:15;;;;;;;7.07;2.85;;;;;;;9.11;84.10;94065.63;5065928;28;20448;-47
2022/04/09 05:13:43;;;;;;;4.60;2.83;;;;;;;9.26;83.58;94063.25;5063748;28;20052;-49
2022/04/09 05:16:12;;;;;;;25.58;10.98;;;;;;;9.51;82.53;94069.78;5068417;28;20052;-49
2022/04/09 05:18:48;;;;;;;14.57;6.43;;;;;;;9.69;81.11;94066.88;5062929;28;20055;-47
2022/04/09 05:21:16;;;;;;;19.67;12.68;;;;;;;9.87;79.22;94054.56;5068462;28;20046;-49
2022/04/09 05:23:43;;;;;;;20.45;10.30;;;;;;;9.94;78.88;94052.56;5062126;28;20040;-46
2022/04/09 05:26:10;;;;;;;15.70;6.63;;;;;;;10.11;79.24;94063.63;5060982;28;20065;-48
2022/04/09 05:28:38;;;;;;;11.20;6.53;;;;;;;10.26;79.45;94057.00;5065525;28;20566;-48
2022/04/09 05:31:06;;;;;;;15.63;6.68;;;;;;;10.43;79.50;94049.91;5070821;28;20123;-48
2022/04/09 05:33:33;;;;;;;16.02;7.80;;;;;;;10.65;79.69;94057.59;5067489;28;20558;-47
2022/04/09 05:36:02;;;;;;;13.40;7.13;;;;;;;10.89;78.71;94055.44;5069904;28;20607;-46
2022/04/09 05:38:30;;;;;;;13.15;7.35;;;;;;;11.20;76.94;94047.78;5067772;28;20078;-51
2022/04/09 05:40:59;;;;;;;16.27;6.55;;;;;;;11.51;75.92;94037.47;5068440;28;20062;-45
2022/04/09 05:43:26;;;;;;;15.02;7.72;;;;;;;11.78;75.04;94041.75;5067541;28;20044;-47
2022/04/09 05:45:57;;;;;;;13.02;6.57;;;;;;;12.09;73.07;94041.81;5063673;28;20040;-45
2022/04/09 05:48:30;;;;;;;17.10;9.50;;;;;;;12.41;71.25;94038.97;5062580;28;20046;-46
2022/04/09 05:50:58;;;;;;;13.43;7.30;;;;;;;12.78;68.91;94051.75;5066489;28;20130;-49
2022/04/09 05:53:28;;;;;;;7.43;4.10;;;;;;;13.11;65.67;94052.22;5067348;28;20040;-48
2022/04/09 05:55:56;;;;;;;9.38;4.50;;;;;;;13.42;63.74;94046.94;5065987;28;20548;-49
2022/04/09 05:58:28;;;;;;;9.15;3.25;;;;;;;13.74;63.74;94053.59;5067799;28;20060;-49
2022/04/09 06:01:00;;;;;;;10.40;5.43;;;;;;;13.96;62.51;94054.00;5070660;28;20045;-48
2022/04/09 06:03:32;;;;;;;7.63;4.93;;;;;;;14.19;59.47;94059.63;5068962;28;20051;-48
2022/04/09 06:06:00;;;;;;;3.45;2.33;;;;;;;14.27;58.87;94040.72;5067462;28;20048;-48
2022/04/09 06:08:44;;;;;;;3.75;1.95;;;;;;;14.39;58.99;94057.94;5066481;28;20057;-46
2022/04/09 06:11:31;;;;;;;1.80;1.13;;;;;;;14.26;57.51;94049.63;5066154;28;20102;-50
2022/04/09 06:14:03;;;;;;;3.38;1.50;;;;;;;14.48;55.47;94066.78;5074385;28;20066;-46
2022/04/09 06:16:30;;;;;;;3.58;1.58;;;;;;;14.59;55.25;94068.28;5066194;28;20056;-45
2022/04/09 06:19:01;;;;;;;6.93;1.98;;;;;;;14.80;55.51;94070.72;5062881;28;20102;-46
2022/04/09 06:21:29;;;;;;;6.68;1.92;;;;;;;14.99;55.07;94061.13;5064202;28;20045;-52
2022/04/09 06:23:58;;;;;;;4.30;2.10;;;;;;;15.23;54.11;94049.88;5066550;28;20089;-47
2022/04/09 06:26:24;;;;;;;5.47;2.20;;;;;;;15.43;52.79;94054.09;5067903;28;20403;-50
2022/04/09 06:28:54;;;;;;;4.97;2.13;;;;;;;15.52;52.34;94059.53;5064578;28;20048;-49
2022/04/09 06:31:21;;;;;;;3.50;1.50;;;;;;;15.57;51.67;94064.72;5098116;28;20048;-48
2022/04/09 06:33:50;;;;;;;9.70;2.70;;;;;;;15.42;51.11;94048.09;5065752;28;20048;-48
2022/04/09 06:36:17;;;;;;;5.80;1.73;;;;;;;15.58;51.74;94067.06;5065171;28;20111;-50
2022/04/09 06:38:44;;;;;;;7.13;2.00;;;;;;;15.66;51.22;94063.03;5066653;28;20055;-53
2022/04/09 06:41:22;;;;;;;3.33;1.60;;;;;;;15.61;51.69;94063.09;5063178;28;20497;-53
2022/04/09 06:43:49;;;;;;;2.85;1.50;;;;;;;15.71;51.32;94067.44;5065921;28;20078;-47
2022/04/09 06:46:31;;;;;;;3.28;1.73;;;;;;;15.48;50.41;94070.59;5063156;28;20079;-46
2022/04/09 06:49:18;;;;;;;5.57;1.88;;;;;;;15.47;49.89;94071.66;5063366;28;20190;-48
2022/04/09 06:51:54;;;;;;;5.85;1.85;;;;;;;15.66;50.58;94063.03;5063077;28;20581;-47
2022/04/09 06:54:32;;;;;;;11.18;2.10;;;;;;;15.72;49.74;94067.19;5064559;28;20051;-49
2022/04/09 06:56:59;;;;;;;6.68;1.90;;;;;;;15.77;49.37;94075.03;5067882;28;20151;-48
2022/04/09 06:59:31;;;;;;;7.35;1.77;;;;;;;15.63;49.74;94074.13;5062734;28;20048;-48
2022/04/09 07:01:58;;;;;;;5.72;1.77;;;;;;;15.86;50.04;94078.59;5059695;28;20055;-48
2022/04/09 07:04:25;;;;;;;8.40;1.45;;;;;;;15.88;49.32;94069.63;5062554;28;20044;-51
2022/04/09 07:06:52;;;;;;;5.85;1.60;;;;;;;15.79;49.89;94072.09;5061752;28;20041;-48
2022/04/09 07:09:18;;;;;;;5.10;1.58;;;;;;;15.84;50.18;94064.94;5063323;28;20697;-52
2022/04/09 07:11:45;;;;;;;13.95;2.03;;;;;;;15.95;50.27;94059.56;5063790;28;20082;-50
2022/04/09 07:14:12;;;;;;;5.00;1.30;;;;;;;15.91;50.34;94048.06;5063809;28;20049;-52
2022/04/09 07:16:39;;;;;;;3.95;2.10;;;;;;;16.13;51.01;94061.41;5063855;28;20041;-47
2022/04/09 07:19:09;;;;;;;3.67;1.60;;;;;;;16.23;49.38;94056.00;5063857;28;20044;-48
2022/04/09 07:21:35;;;;;;;6.25;1.63;;;;;;;16.28;49.07;94057.00;5066121;28;20044;-51
2022/04/09 07:24:02;;;;;;;4.13;2.03;;;;;;;16.39;49.38;94047.91;5065142;28;20540;-48
2022/04/09 07:26:29;;;;;;;7.65;2.90;;;;;;;16.43;48.48;94048.91;5065285;28;20044;-46
2022/04/09 07:28:56;;;;;;;5.45;1.70;;;;;;;16.57;48.68;94054.97;5065347;28;20056;-46
2022/04/09 07:31:23;;;;;;;22.55;10.30;;;;;;;16.62;48.63;94047.03;5065493;28;20579;-51
2022/04/09 07:33:50;;;;;;;8.15;3.63;;;;;;;16.69;48.43;94040.59;5065096;28;20048;-49
2022/04/09 07:36:16;;;;;;;7.57;1.60;;;;;;;16.85;47.74;94055.09;5064974;28;20117;-47
2022/04/09 07:38:44;;;;;;;9.32;1.85;;;;;;;16.89;48.02;94053.47;5064719;28;20464;-52
2022/04/09 07:41:10;;;;;;;5.25;2.13;;;;;;;17.16;48.07;94054.53;5064724;28;20047;-46
2022/04/09 07:43:37;;;;;;;9.75;1.88;;;;;;;17.54;47.12;94054.41;5063872;28;20048;-46
2022/04/09 07:46:04;;;;;;;10.95;2.28;;;;;;;17.74;46.82;94059.25;5064618;28;20074;-47
2022/04/09 07:48:31;;;;;;;6.68;2.05;;;;;;;17.74;46.11;94059.25;5064697;28;20048;-47
2022/04/09 07:50:58;;;;;;;6.55;2.42;;;;;;;17.61;46.34;94060.06;5064859;28;20040;-48
2022/04/09 07:53:24;;;;;;;8.07;2.88;;;;;;;17.80;45.81;94051.25;5064180;28;20044;-51
2022/04/09 07:55:51;;;;;;;4.50;2.13;;;;;;;17.89;45.72;94060.81;5064689;28;20058;-48
2022/04/09 07:58:18;;;;;;;5.43;2.42;;;;;;;18.09;45.55;94059.59;5065442;28;20390;-46
2022/04/09 08:00:45;;;;;;;6.57;1.70;;;;;;;18.25;44.75;94062.69;5064092;28;20101;-46
2022/04/09 08:03:12;;;;;;;7.65;2.15;;;;;;;18.20;45.44;94065.44;5063566;28;20052;-49
2022/04/09 08:05:42;;;;;;;5.18;1.80;;;;;;;18.33;44.32;94058.59;5064579;28;20054;-48
2022/04/09 08:08:09;;;;;;;4.18;1.38;;;;;;;18.40;44.19;94058.94;5064277;28;20040;-48
2022/04/09 08:10:39;;;;;;;8.27;1.88;;;;;;;18.48;45.18;94055.59;5064545;28;20043;-48
2022/04/09 08:13:06;;;;;;;3.70;2.35;;;;;;;18.80;43.72;94059.06;5064737;28;20048;-47
2022/04/09 08:15:33;;;;;;;7.90;1.80;;;;;;;18.99;42.86;94064.16;5063482;28;20036;-48
2022/04/09 08:18:03;;;;;;;2.08;1.27;;;;;;;19.08;42.90;94051.00;5063603;28;20056;-48
2022/04/09 08:20:51;;;;;;;5.07;2.25;;;;;;;19.46;42.38;94050.53;5063109;28;20145;-46
2022/04/09 08:23:17;;;;;;;13.75;2.25;;;;;;;19.52;41.83;94054.63;5063911;28;20495;-48
2022/04/09 08:25:44;;;;;;;3.42;1.75;;;;;;;19.68;42.43;94042.53;5064370;28;20056;-46
2022/04/09 08:28:11;;;;;;;4.85;1.60;;;;;;;19.54;42.48;94049.81;5064254;28;20068;-46
2022/04/09 08:30:40;;;;;;;9.05;2.03;;;;;;;19.61;42.24;94052.00;5064989;28;20102;-50
2022/04/09 08:33:07;;;;;;;5.07;2.30;;;;;;;19.80;40.84;94043.84;5062266;28;20048;-47
2022/04/09 08:35:34;;;;;;;6.55;1.80;;;;;;;20.07;40.90;94036.72;5064270;28;20041;-46
2022/04/09 08:38:03;;;;;;;1.63;1.10;;;;;;;19.67;41.60;94040.22;5064388;28;20051;-45
2022/04/09 08:40:32;;;;;;;3.15;1.90;;;;;;;20.05;40.47;94045.72;5064284;28;20045;-51
2022/04/09 08:42:59;;;;;;;6.28;2.33;;;;;;;20.21;40.48;94040.00;5064334;28;20041;-48
2022/04/09 08:45:26;;;;;;;6.50;1.80;;;;;;;20.23;39.59;94045.75;5064511;28;20740;-48
2022/04/09 08:47:54;;;;;;;7.97;2.50;;;;;;;20.43;39.85;94034.53;5064338;28;20121;-51
2022/04/09 08:50:22;;;;;;;9.35;2.10;;;;;;;20.61;37.92;94026.63;5068231;28;20114;-47
2022/04/09 08:52:50;;;;;;;2.15;1.55;;;;;;;20.61;38.95;94027.41;5068032;28;20105;-49
2022/04/09 08:55:17;;;;;;;6.32;2.08;;;;;;;20.22;39.13;94012.47;5067952;28;20040;-49
2022/04/09 08:57:45;;;;;;;5.70;2.35;;;;;;;20.90;38.62;94019.88;5066758;28;20049;-49
2022/04/09 09:00:13;;;;;;;4.35;2.25;;;;;;;21.18;37.60;94020.28;5067562;28;20036;-49
2022/04/09 09:02:55;;;;;;;2.83;1.55;;;;;;;21.18;37.43;94021.03;5067521;28;20069;-46
2022/04/09 09:05:37;;;;;;;3.88;1.50;;;;;;;20.90;37.56;94009.31;5066591;28;20130;-49
2022/04/09 09:08:05;;;;;;;3.53;1.35;;;;;;;20.68;37.49;94011.06;5066909;28;20429;-48
2022/04/09 09:10:32;;;;;;;3.30;1.33;;;;;;;20.52;39.11;94000.16;5067625;28;20055;-48
2022/04/09 09:13:06;;;;;;;5.63;1.65;;;;;;;20.91;37.72;94008.22;5067797;28;20488;-49
2022/04/09 09:15:52;;;;;;;2.88;1.33;;;;;;;20.82;37.29;94008.25;5067578;28;20045;-46
2022/04/09 09:18:19;;;;;;;2.95;1.20;;;;;;;20.71;37.74;93997.22;5065230;28;20056;-50
2022/04/09 09:20:55;;;;;;;3.30;1.13;;;;;;;21.06;37.72;93997.09;5068132;28;20571;-47
2022/04/09 09:23:27;;;;;;;1.73;1.10;;;;;;;21.23;37.28;93984.88;5067369;28;20111;-48
2022/04/09 09:25:55;;;;;;;4.93;1.27;;;;;;;21.03;36.12;93992.47;5067468;28;20493;-46
2022/04/09 09:28:30;;;;;;;2.15;0.90;;;;;;;21.00;37.05;93993.09;5067723;28;20036;-46
2022/04/09 09:30:58;;;;;;;2.47;1.48;;;;;;;21.05;36.78;93979.69;5067244;28;20478;-48
2022/04/09 09:33:26;;;;;;;3.45;0.95;;;;;;;21.13;36.61;93976.22;5067098;28;20064;-47
2022/04/09 09:36:13;;;;;;;4.82;1.20;;;;;;;21.03;35.97;93987.16;5067426;28;20048;-47
2022/04/09 09:38:40;;;;;;;5.07;1.10;;;;;;;21.02;36.76;93975.00;5067519;28;20471;-47
2022/04/09 09:41:22;;;;;;;3.83;1.15;;;;;;;21.19;36.44;93985.53;5066793;28;20398;-48
2022/04/09 09:44:03;;;;;;;2.15;1.08;;;;;;;21.28;35.89;93977.53;5067030;28;20052;-48
2022/04/09 09:46:30;;;;;;;3.65;1.02;;;;;;;21.38;34.71;93985.13;5068590;28;20044;-48
2022/04/09 09:48:57;;;;;;;3.38;0.98;;;;;;;21.36;34.79;93983.91;5067487;28;20037;-49
2022/04/09 09:51:24;;;;;;;3.60;1.50;;;;;;;21.43;33.78;93984.19;5066577;28;20049;-46
2022/04/09 09:54:08;;;;;;;3.53;1.45;;;;;;;21.31;34.96;93986.72;5067058;28;20036;-46
2022/04/09 09:56:41;;;;;;;11.55;1.55;;;;;;;21.32;35.62;93972.38;5066238;28;20040;-49
2022/04/09 09:59:11;;;;;;;14.27;2.35;;;;;;;21.23;34.91;93984.88;5065813;28;20457;-48
2022/04/09 10:01:43;;;;;;;6.95;3.08;;;;;;;21.23;34.21;93974.28;5066082;28;20053;-48
2022/04/09 10:04:12;;;;;;;4.60;1.60;;;;;;;21.08;33.59;93981.69;5066705;28;20054;-47
2022/04/09 10:06:42;;;;;;;5.15;2.78;;;;;;;21.13;34.93;93981.50;5066754;28;20098;-48
2022/04/09 10:09:13;;;;;;;8.23;2.33;;;;;;;21.42;34.16;93987.91;5067861;28;20048;-52
2022/04/09 10:11:49;;;;;;;2.97;0.98;;;;;;;21.41;32.90;93975.78;5066869;28;20105;-47
2022/04/09 10:14:23;;;;;;;2.75;1.23;;;;;;;21.73;32.16;93970.94;5066760;28;20055;-48
2022/04/09 10:16:51;;;;;;;2.55;1.15;;;;;;;21.75;32.33;93968.72;5066889;28;20052;-49
2022/04/09 10:19:20;;;;;;;3.08;1.00;;;;;;;22.22;31.47;93963.25;5065106;28;20501;-48
2022/04/09 10:21:48;;;;;;;4.03;0.95;;;;;;;22.33;31.90;93961.78;5066405;28;20040;-47
2022/04/09 10:24:18;;;;;;;5.50;1.73;;;;;;;22.91;31.45;93961.03;5066693;28;20044;-50
2022/04/09 10:26:45;;;;;;;2.30;1.00;;;;;;;23.36;30.50;93959.44;5067064;28;21068;-49
2022/04/09 10:29:12;;;;;;;2.45;0.85;;;;;;;23.55;29.34;93964.16;5065508;28;20040;-48
2022/04/09 10:31:48;;;;;;;2.20;0.70;;;;;;;23.40;29.30;93973.59;5066227;28;20434;-50
2022/04/09 10:34:16;;;;;;;2.15;0.95;;;;;;;22.68;29.84;93971.28;5065221;28;20056;-45
2022/04/09 10:36:43;;;;;;;1.33;0.50;;;;;;;22.47;29.84;93958.03;5065437;28;20549;-53
2022/04/09 10:39:25;;;;;;;5.78;1.50;;;;;;;22.12;30.70;93953.81;5065741;28;20045;-48
2022/04/09 10:41:55;;;;;;;5.50;1.02;;;;;;;22.07;30.92;93937.31;5065883;28;20123;-48
2022/04/09 10:44:44;;;;;;;2.25;0.70;;;;;;;21.96;30.72;93940.34;5065655;28;20040;-48
2022/04/09 10:47:14;;;;;;;2.65;0.95;;;;;;;21.99;31.67;93936.28;5064944;28;20040;-45
2022/04/09 10:50:00;;;;;;;3.20;1.48;;;;;;;22.45;31.35;93928.41;5066050;28;20037;-50
2022/04/09 10:52:30;;;;;;;3.88;1.20;;;;;;;22.80;30.07;93923.53;5054923;28;20071;-46
2022/04/09 10:55:12;;;;;;;2.58;0.63;;;;;;;22.81;28.23;93924.28;5065920;28;20051;-48
2022/04/09 10:57:44;;;;;;;4.85;0.80;;;;;;;22.79;28.73;93923.84;5065822;28;20059;-51
2022/04/09 11:00:22;;;;;;;3.97;1.08;;;;;;;22.83;29.31;93914.09;5065718;28;20066;-47
2022/04/09 11:03:04;;;;;;;1.92;0.55;;;;;;;23.07;29.69;93924.78;5064273;28;20079;-49
2022/04/09 11:05:33;;;;;;;3.60;1.98;;;;;;;23.39;27.53;93919.69;5065274;28;20068;-51
2022/04/09 11:08:07;;;;;;;4.97;1.35;;;;;;;23.81;28.38;93908.78;5065761;28;20043;-51
2022/04/09 11:10:35;;;;;;;1.92;0.77;;;;;;;23.38;27.46;93918.13;5064801;28;20040;-51
2022/04/09 11:13:03;;;;;;;4.20;1.15;;;;;;;23.14;28.16;93926.09;5065400;28;20395;-49
2022/04/09 11:15:30;;;;;;;6.45;2.33;;;;;;;22.59;28.28;93920.94;5065480;28;20046;-51
2022/04/09 11:18:01;;;;;;;5.75;1.35;;;;;;;22.55;27.43;93920.06;5064391;28;20488;-49
2022/04/09 11:20:45;;;;;;;4.20;0.68;;;;;;;22.71;27.58;93913.00;5063524;28;20494;-51
2022/04/09 11:23:17;;;;;;;1.75;0.60;;;;;;;23.00;28.23;93908.59;5064323;28;20072;-49
2022/04/09 11:25:44;;;;;;;3.13;0.93;;;;;;;23.02;27.56;93906.38;5065356;28;20071;-50
2022/04/09 11:28:18;;;;;;;2.17;0.40;;;;;;;23.14;26.60;93902.19;5065015;28;20124;-51
2022/04/09 11:31:00;;;;;;;1.10;0.50;;;;;;;23.28;27.57;93898.13;5064964;28;20090;-49
2022/04/09 11:33:28;;;;;;;2.90;1.70;;;;;;;23.35;28.23;93902.84;5065788;28;20060;-47
2022/04/09 11:35:55;;;;;;;0.95;0.30;;;;;;;23.48;27.41;93901.75;5063544;28;20074;-47
2022/04/09 11:38:25;;;;;;;3.35;1.08;;;;;;;23.61;28.34;93888.44;5064571;28;20048;-46
2022/04/09 11:40:56;;;;;;;1.67;0.70;;;;;;;23.42;27.55;93897.75;5064220;28;20079;-51
2022/04/09 11:43:24;;;;;;;13.60;2.13;;;;;;;22.93;26.48;93871.19;5063639;28;20198;-50
2022/04/09 11:45:52;;;;;;;2.15;0.68;;;;;;;22.84;26.92;93897.09;5064870;28;20131;-50
2022/04/09 11:48:25;;;;;;;7.40;0.80;;;;;;;22.91;27.25;93884.81;5065120;28;20563;-50